Woody Richerson — WDF9621 — position and weather

sailwx.info

Track history (hours):
 
Tides and Currents Weather Stations Pressure Air Temp Water Temp Dewpoint Dewpoint Depression Visibility Wind Speed Wind Dir Waves Ship Positions

Woody Richerson

Owner: Florida Marine, LLC, Mandeville, LA. More information available from US FCC via Universal Licensing System and Coast Guard Vessel Documentation Center.

Last reported at 2015-Jul-29 11:16 UTC. Time now 2015-Aug-04 01:20 UTC.
Position N 29°58' W 093°51'.

Length 27 m.

Type: Other ship. MMSI: 367507070.

Date/timePositionNaut miles runAvg speedWind from/ knotsBaromVisibWave heightAir tempDewpointWater temp
2015-Jul-29 11:16N 29°58' W 093°51'  
2015-Jul-24 20:10N 29°26' W 094°50'5 8.0
2015-Jul-24 19:33N 29°30' W 094°52'8 7.7
2015-Jul-24 18:33N 29°36' W 094°57'7 7.2
2015-Jul-24 17:33N 29°43' W 095°01'5 0.5
2015-Jul-24 08:18N 29°46' W 095°05'1 0.5
2015-Jul-24 06:03N 29°46' W 095°07'1 0.0
2015-Jul-23 13:26N 29°46' W 095°06'2 0.1
2015-Jul-22 20:24N 29°47' W 095°04'2 2.5
2015-Jul-22 19:33N 29°46' W 095°05'1 0.1
2015-Jul-22 14:05N 29°46' W 095°06'0 0.0
2015-Jul-22 12:31N 29°46' W 095°06'0 0.0
2015-Jul-22 11:32N 29°46' W 095°06'0 0.0
2015-Jul-22 10:21N 29°46' W 095°06'2 1.0
2015-Jul-22 08:15N 29°44' W 095°07'2 2.6
2015-Jul-22 07:29N 29°46' W 095°05'2 1.7
2015-Jul-22 06:17N 29°47' W 095°04'0 0.2
2015-Jul-22 04:33N 29°47' W 095°04'3 3.1
2015-Jul-22 03:33N 29°44' W 095°03'5 5.2
2015-Jul-22 02:33N 29°41' W 094°59'7 7.2
2015-Jul-22 01:33N 29°34' W 094°55'  
Track history (hours):
 
Tides and Currents Weather Stations Pressure Air Temp Water Temp Dewpoint Dewpoint Depression Visibility Wind Speed Wind Dir Waves Ship Positions

Woody Richerson

Owner: Florida Marine, LLC, Mandeville, LA. More information available from US FCC via Universal Licensing System and Coast Guard Vessel Documentation Center.

Last reported at 2015-Jul-29 11:16 UTC. Time now 2015-Aug-04 01:20 UTC.
Position N 29°58' W 093°51'.

Length 27 m.

Type: Other ship. MMSI: 367507070.

Date/timePositionNaut miles runAvg speedWind from/ knotsBaromVisibWave heightAir tempDewpointWater temp
2015-Jul-29 11:16N 29°58' W 093°51'  
2015-Jul-24 20:10N 29°26' W 094°50'5 8.0
2015-Jul-24 19:33N 29°30' W 094°52'8 7.7
2015-Jul-24 18:33N 29°36' W 094°57'7 7.2
2015-Jul-24 17:33N 29°43' W 095°01'5 0.5
2015-Jul-24 08:18N 29°46' W 095°05'1 0.5
2015-Jul-24 06:03N 29°46' W 095°07'1 0.0
2015-Jul-23 13:26N 29°46' W 095°06'2 0.1
2015-Jul-22 20:24N 29°47' W 095°04'2 2.5
2015-Jul-22 19:33N 29°46' W 095°05'1 0.1
2015-Jul-22 14:05N 29°46' W 095°06'0 0.0
2015-Jul-22 12:31N 29°46' W 095°06'0 0.0
2015-Jul-22 11:32N 29°46' W 095°06'0 0.0
2015-Jul-22 10:21N 29°46' W 095°06'2 1.0
2015-Jul-22 08:15N 29°44' W 095°07'2 2.6
2015-Jul-22 07:29N 29°46' W 095°05'2 1.7
2015-Jul-22 06:17N 29°47' W 095°04'0 0.2
2015-Jul-22 04:33N 29°47' W 095°04'3 3.1
2015-Jul-22 03:33N 29°44' W 095°03'5 5.2
2015-Jul-22 02:33N 29°41' W 094°59'7 7.2
2015-Jul-22 01:33N 29°34' W 094°55'  

Dump ship's entire track history